Dudley, Iowa
Current Conditions -  °F | °C
As of 11:55 PM on Tuesday 21 Oct 2014 (Local Time) from KOOA Reporting Station
Clear Clear  
Wind Chill: 41°   Ceiling: Unl
Heat Index: 45°   Visibility: 10mi
Dew Point: 38°   Wind: 8mph
Humidity: 76%   Direction: 110°ESE
Pressure: 30.21"   Gusts: NA
Location:  41.0803°N, 92.3054°W
Report Text: KOOA 220455Z AUTO 11007KT 10SM CLR 07/03 A3021 RMK AO2 T00720032
Loading
Personal Weather Stations






























Interactive Weather Map
Tropical Storm Tracking
New forecast layout! Learn more

10-Day Weather Forecast

Advertisements
Track Severe Weather on mobile